Time;durP1;ratioP1;P1;durP2;ratioP2;P2;SDS_P1;SDS_P2;PMS_P1;PMS_P2;Temp;Humidity;BMP_temperature;BMP_pressure;BME280_temperature;BME280_humidity;BME280_pressure;Samples;Min_cycle;Max_cycle;Signal;HPM_P1;HPM_P2
2023/07/05 00:01:54;;;;;;;8.50;5.50;;;;;;;18.87;100.00;101082.33;105838;1257;73794;-43
2023/07/05 00:04:22;;;;;;;10.80;5.80;;;;;;;18.81;100.00;101088.84;105931;1257;63914;-43
2023/07/05 00:06:53;;;;;;;7.70;5.60;;;;;;;18.78;100.00;101090.89;105824;1254;71737;-43
2023/07/05 00:09:21;;;;;;;8.80;5.20;;;;;;;18.76;100.00;101091.17;105899;1253;62037;-42
2023/07/05 00:11:49;;;;;;;6.50;5.20;;;;;;;18.74;100.00;101087.95;105839;1253;60510;-42
2023/07/05 00:14:16;;;;;;;10.50;5.90;;;;;;;18.72;100.00;101091.16;105829;1257;71786;-43
2023/07/05 00:16:44;;;;;;;11.00;5.70;;;;;;;18.69;100.00;101090.94;105889;1253;65243;-43
2023/07/05 00:19:12;;;;;;;10.30;5.90;;;;;;;18.66;100.00;101089.29;105904;1257;71379;-45
2023/07/05 00:21:39;;;;;;;6.90;5.90;;;;;;;18.65;100.00;101089.54;105875;1253;61616;-43
2023/07/05 00:24:07;;;;;;;8.30;5.90;;;;;;;18.63;100.00;101085.43;105819;1252;60431;-44
2023/07/05 00:26:35;;;;;;;7.80;5.50;;;;;;;18.61;100.00;101091.30;105850;1251;72528;-44
2023/07/05 00:29:02;;;;;;;8.40;5.90;;;;;;;18.60;100.00;101093.08;105827;1254;63539;-42
2023/07/05 00:31:30;;;;;;;7.90;5.80;;;;;;;18.58;100.00;101094.73;105834;1254;71567;-45
2023/07/05 00:33:58;;;;;;;6.80;5.40;;;;;;;18.56;100.00;101106.35;105902;1256;60444;-45
2023/07/05 00:36:27;;;;;;;7.60;5.60;;;;;;;18.54;100.00;101110.09;105890;1257;60501;-42
2023/07/05 00:38:55;;;;;;;9.80;5.70;;;;;;;18.53;100.00;101105.39;105907;1256;73840;-42
2023/07/05 00:41:24;;;;;;;10.80;5.80;;;;;;;18.53;100.00;101110.29;105832;1253;65346;-43
2023/07/05 00:43:51;;;;;;;9.50;6.20;;;;;;;18.53;100.00;101111.70;105727;1253;72639;-42
2023/07/05 00:46:21;;;;;;;10.70;6.30;;;;;;;18.53;100.00;101123.90;105858;1257;60444;-43
2023/07/05 00:48:59;;;;;;;7.80;5.50;;;;;;;18.55;100.00;101114.41;105717;1254;60542;-42
2023/07/05 00:51:29;;;;;;;8.50;5.80;;;;;;;18.55;100.00;101106.88;105903;1253;72240;-41
2023/07/05 00:53:59;;;;;;;7.20;5.60;;;;;;;18.55;100.00;101106.02;105696;1253;63974;-42
2023/07/05 00:56:31;;;;;;;6.20;5.60;;;;;;;18.56;100.00;101101.26;105664;1255;72659;-42
2023/07/05 00:58:58;;;;;;;10.70;6.10;;;;;;;18.56;100.00;101091.86;105881;1253;61609;-45
2023/07/05 01:01:26;;;;;;;8.40;6.00;;;;;;;18.54;100.00;101093.83;105826;1254;60453;-41
2023/07/05 01:03:56;;;;;;;12.30;6.10;;;;;;;18.52;100.00;101097.05;105915;1253;73010;-44
2023/07/05 01:06:24;;;;;;;11.20;6.20;;;;;;;18.51;100.00;101098.35;105895;1259;63885;-45
2023/07/05 01:08:52;;;;;;;9.40;6.20;;;;;;;18.48;100.00;101098.46;105901;1254;72607;-44
2023/07/05 01:11:37;;;;;;;8.90;5.70;;;;;;;18.45;100.00;101102.77;105716;1254;61634;-44
2023/07/05 01:14:10;;;;;;;8.80;6.00;;;;;;;18.41;100.00;101102.73;105764;1253;60322;-43
2023/07/05 01:16:48;;;;;;;6.10;5.60;;;;;;;18.38;100.00;101104.11;105883;1257;73093;-44
2023/07/05 01:19:34;;;;;;;8.10;6.10;;;;;;;18.34;100.00;101104.79;105860;1253;63991;-42
2023/07/05 01:22:05;;;;;;;8.10;6.00;;;;;;;18.29;100.00;101103.92;105876;1254;71702;-45
2023/07/05 01:24:48;;;;;;;8.70;6.30;;;;;;;18.26;100.00;101106.01;105966;1256;60425;-42
2023/07/05 01:27:26;;;;;;;8.70;5.90;;;;;;;18.20;100.00;101103.77;105851;1253;60500;-43
2023/07/05 01:29:58;;;;;;;9.80;5.80;;;;;;;18.17;100.00;101104.42;105976;1257;73847;-45
2023/07/05 01:33:00;;;;;;;15.70;6.10;;;;;;;18.14;100.00;101104.37;105918;1259;64118;-45
2023/07/05 01:35:31;;;;;;;12.00;6.30;;;;;;;18.08;100.00;101100.22;105727;1253;71397;-43
2023/07/05 01:37:59;;;;;;;8.80;6.00;;;;;;;18.04;100.00;101103.35;105688;1257;61655;-45
2023/07/05 01:40:27;;;;;;;10.70;5.80;;;;;;;18.02;100.00;101104.32;105899;1253;60442;-43
2023/07/05 01:43:00;;;;;;;10.80;6.70;;;;;;;18.02;100.00;101102.06;105882;1254;73799;-43
2023/07/05 01:45:52;;;;;;;11.30;6.70;;;;;;;18.01;100.00;101094.91;105942;1256;63930;-42
2023/07/05 01:48:38;;;;;;;13.40;6.10;;;;;;;17.99;100.00;101091.48;105870;1254;71466;-44
2023/07/05 01:51:22;;;;;;;13.40;6.80;;;;;;;18.00;100.00;101088.14;105707;1256;61602;-43
2023/07/05 01:54:23;;;;;;;10.90;6.50;;;;;;;17.97;100.00;101085.09;105888;1254;60344;-42
2023/07/05 01:57:13;;;;;;;12.90;5.80;;;;;;;17.95;100.00;101076.78;105701;1260;73840;-43
2023/07/05 01:59:50;;;;;;;12.10;7.20;;;;;;;17.94;100.00;101067.41;105678;1258;63999;-46
2023/07/05 02:02:18;;;;;;;10.70;6.30;;;;;;;17.92;100.00;101062.95;105654;1254;72629;-45
2023/07/05 02:04:46;;;;;;;13.20;6.70;;;;;;;17.89;100.00;101063.21;105722;1259;61576;-43
2023/07/05 02:07:14;;;;;;;10.60;6.70;;;;;;;17.87;100.00;101058.97;105688;1259;60318;-42
2023/07/05 02:09:42;;;;;;;10.30;6.50;;;;;;;17.86;100.00;101054.63;105879;1251;72967;-42
2023/07/05 02:12:10;;;;;;;13.80;6.30;;;;;;;17.84;100.00;101053.30;105721;1259;65209;-44
2023/07/05 02:14:39;;;;;;;8.80;6.30;;;;;;;17.81;100.00;101053.56;105875;1256;72480;-43
2023/07/05 02:17:07;;;;;;;9.80;6.30;;;;;;;17.79;100.00;101055.58;105839;1259;60481;-44
2023/07/05 02:19:35;;;;;;;13.00;6.80;;;;;;;17.76;100.00;101054.99;105840;1257;60367;-42
2023/07/05 02:22:04;;;;;;;13.20;6.90;;;;;;;17.75;100.00;101050.85;105894;1251;73805;-43
2023/07/05 02:24:31;;;;;;;7.80;6.40;;;;;;;17.76;100.00;101048.55;105851;1255;64345;-42
2023/07/05 02:26:59;;;;;;;9.80;6.70;;;;;;;17.78;100.00;101047.92;105853;1252;71469;-42
2023/07/05 02:29:30;;;;;;;7.40;6.50;;;;;;;17.81;100.00;101045.39;105873;1257;60533;-44
2023/07/05 02:31:58;;;;;;;16.40;7.30;;;;;;;17.86;100.00;101039.63;105889;1256;60425;-43
2023/07/05 02:34:27;;;;;;;10.60;7.50;;;;;;;17.90;100.00;101035.47;105888;1252;73948;-42
2023/07/05 02:36:54;;;;;;;16.70;8.70;;;;;;;17.92;100.00;101030.98;105868;1253;65141;-43
2023/07/05 02:39:22;;;;;;;11.90;8.60;;;;;;;17.94;100.00;101032.48;105861;1254;71807;-42
2023/07/05 02:41:49;;;;;;;13.70;7.40;;;;;;;17.95;100.00;101035.25;105830;1254;61623;-40
2023/07/05 02:44:17;;;;;;;9.30;6.80;;;;;;;17.97;100.00;101032.71;105850;1257;60478;-41
2023/07/05 02:46:45;;;;;;;11.80;7.10;;;;;;;18.01;100.00;101032.93;105819;1256;73783;-43
2023/07/05 02:49:13;;;;;;;7.40;6.70;;;;;;;18.05;100.00;101031.02;105852;1256;63975;-45
2023/07/05 02:51:41;;;;;;;14.80;7.50;;;;;;;18.11;100.00;101030.29;105860;1257;71750;-45
2023/07/05 02:54:08;;;;;;;9.50;6.30;;;;;;;18.19;100.00;101023.46;105856;1256;60533;-43
2023/07/05 02:56:36;;;;;;;8.50;6.90;;;;;;;18.27;100.00;101019.98;105867;1254;60505;-42
2023/07/05 02:59:04;;;;;;;9.20;6.50;;;;;;;18.35;100.00;101027.16;105961;1253;72552;-42
2023/07/05 03:01:31;;;;;;;12.20;6.90;;;;;;;18.44;100.00;101028.73;105730;1252;64016;-42
2023/07/05 03:03:59;;;;;;;9.90;6.80;;;;;;;18.54;100.00;101030.94;105883;1259;71491;-45
2023/07/05 03:06:27;;;;;;;10.00;7.00;;;;;;;18.64;100.00;101029.80;105767;1259;60505;-44
2023/07/05 03:08:55;;;;;;;11.40;6.50;;;;;;;18.75;100.00;101038.27;105887;1258;60425;-42
2023/07/05 03:11:22;;;;;;;7.90;6.70;;;;;;;18.85;100.00;101047.96;105760;1254;72649;-43
2023/07/05 03:13:50;;;;;;;21.80;6.90;;;;;;;18.93;100.00;101058.45;105675;1260;65261;-42
2023/07/05 03:16:17;;;;;;;13.60;7.10;;;;;;;19.02;100.00;101066.66;105669;1254;71447;-46
2023/07/05 03:18:45;;;;;;;12.80;7.10;;;;;;;19.07;100.00;101074.65;105716;1253;60301;-44
2023/07/05 03:21:13;;;;;;;11.30;7.00;;;;;;;19.12;100.00;101082.51;105803;1259;60438;-42
2023/07/05 03:23:41;;;;;;;10.40;6.80;;;;;;;19.18;100.00;101100.41;105912;1257;73862;-43
2023/07/05 03:26:09;;;;;;;9.30;6.10;;;;;;;19.27;100.00;101116.97;105708;1253;64529;-44
2023/07/05 03:28:37;;;;;;;11.40;6.40;;;;;;;19.35;100.00;101125.73;105889;1259;71774;-43
2023/07/05 03:31:11;;;;;;;11.00;6.80;;;;;;;19.43;100.00;101135.52;105830;1254;61133;-42
2023/07/05 03:33:39;;;;;;;12.10;6.40;;;;;;;19.52;100.00;101146.52;105853;1257;60680;-44
2023/07/05 03:36:14;;;;;;;10.00;6.30;;;;;;;19.60;100.00;101156.46;105757;1257;72606;-42
2023/07/05 03:38:42;;;;;;;11.20;6.50;;;;;;;19.68;100.00;101167.48;105876;1257;65141;-42
2023/07/05 03:41:19;;;;;;;8.90;6.20;;;;;;;19.77;100.00;101178.10;105874;1253;72652;-41
2023/07/05 03:43:48;;;;;;;9.90;6.50;;;;;;;19.90;100.00;101194.17;105709;1257;61652;-42
2023/07/05 03:46:16;;;;;;;10.10;6.30;;;;;;;20.07;100.00;101209.68;105898;1254;60394;-42
2023/07/05 03:48:44;;;;;;;15.00;6.70;;;;;;;20.31;100.00;101217.52;105885;1254;73302;-45
2023/07/05 03:51:14;;;;;;;19.70;6.70;;;;;;;20.63;100.00;101222.52;105895;1257;65610;-42
2023/07/05 03:53:41;;;;;;;11.30;6.40;;;;;;;21.01;100.00;101231.73;105847;1256;72577;-45
2023/07/05 03:56:10;;;;;;;14.40;6.60;;;;;;;21.42;100.00;101238.27;105827;1258;60657;-43
2023/07/05 03:58:38;;;;;;;11.40;5.50;;;;;;;21.81;100.00;101242.03;105889;1255;60505;-44
2023/07/05 04:01:17;;;;;;;10.40;6.20;;;;;;;22.14;100.00;101226.73;105834;1257;73003;-43
2023/07/05 04:03:46;;;;;;;10.90;6.40;;;;;;;22.40;100.00;101177.13;105893;1254;64349;-44
2023/07/05 04:06:15;;;;;;;17.60;6.10;;;;;;;22.63;100.00;101105.68;105927;1254;71667;-43
2023/07/05 04:08:43;;;;;;;8.40;6.20;;;;;;;22.88;100.00;101015.88;105854;1254;61070;-43
2023/07/05 04:11:10;;;;;;;6.80;6.00;;;;;;;23.02;100.00;100910.88;105886;1257;60328;-46
2023/07/05 04:13:39;;;;;;;6.20;5.60;;;;;;;23.10;100.00;100819.04;105858;1251;73092;-46
2023/07/05 04:16:13;;;;;;;11.10;6.00;;;;;;;23.26;100.00;100773.83;105628;1253;63918;-42
2023/07/05 04:18:41;;;;;;;9.70;6.30;;;;;;;23.45;100.00;100731.01;105805;1257;71351;-44
2023/07/05 04:21:10;;;;;;;10.40;6.10;;;;;;;23.53;100.00;100673.39;105854;1259;60505;-43
2023/07/05 04:23:38;;;;;;;6.30;5.70;;;;;;;23.66;100.00;100641.00;105926;1257;60785;-45
2023/07/05 04:26:20;;;;;;;11.10;6.10;;;;;;;23.87;100.00;100624.91;105879;1253;73790;-43
2023/07/05 04:28:48;;;;;;;10.00;6.20;;;;;;;24.02;100.00;100587.37;105907;1259;63941;-42
2023/07/05 04:31:24;;;;;;;11.20;6.20;;;;;;;24.20;100.00;100572.48;105851;1257;72774;-44
2023/07/05 04:33:52;;;;;;;8.80;6.10;;;;;;;24.39;100.00;100555.02;105880;1256;60402;-42
2023/07/05 04:36:19;;;;;;;8.40;6.30;;;;;;;24.56;100.00;100541.91;105856;1267;60518;-45
2023/07/05 04:38:55;;;;;;;13.80;6.70;;;;;;;24.66;100.00;100527.23;105926;1257;72560;-46
2023/07/05 04:41:24;;;;;;;10.50;6.20;;;;;;;24.71;100.00;100526.51;105895;1257;63945;-46
2023/07/05 04:43:51;;;;;;;7.60;5.70;;;;;;;24.91;100.00;100533.98;105863;1257;72656;-44
2023/07/05 04:46:20;;;;;;;7.20;6.50;;;;;;;25.26;100.00;100538.55;105862;1258;60476;-42
2023/07/05 04:48:49;;;;;;;7.10;5.70;;;;;;;25.60;100.00;100530.92;105911;1257;60319;-44
2023/07/05 04:51:17;;;;;;;12.50;6.70;;;;;;;25.70;100.00;100535.45;105857;1256;73860;-43
2023/07/05 04:53:45;;;;;;;7.00;6.00;;;;;;;25.69;100.00;100550.00;105884;1265;63935;-42
2023/07/05 04:56:13;;;;;;;10.30;6.10;;;;;;;25.64;100.00;100565.91;105837;1257;72503;-42
2023/07/05 04:58:41;;;;;;;9.60;6.00;;;;;;;25.69;100.00;100568.22;105872;1255;60459;-43
2023/07/05 05:01:10;;;;;;;8.20;5.70;;;;;;;25.62;100.00;100576.65;105909;1254;60548;-45
2023/07/05 05:03:39;;;;;;;10.70;5.80;;;;;;;25.60;100.00;100573.66;105866;1257;72564;-45
2023/07/05 05:06:06;;;;;;;15.00;6.30;;;;;;;25.60;100.00;100571.21;105901;1259;65383;-42
2023/07/05 05:08:34;;;;;;;18.10;6.70;;;;;;;25.53;100.00;100577.58;105846;1258;72625;-44
2023/07/05 05:11:03;;;;;;;12.80;6.40;;;;;;;25.56;100.00;100578.75;105895;1257;60537;-42
2023/07/05 05:13:33;;;;;;;7.30;6.40;;;;;;;25.63;100.00;100576.08;105847;1256;60629;-43
2023/07/05 05:16:01;;;;;;;9.50;6.30;;;;;;;25.39;100.00;100595.94;105885;1256;73034;-45
2023/07/05 05:18:30;;;;;;;7.70;6.40;;;;;;;25.17;100.00;100597.29;105759;1257;300389;-42
2023/07/05 05:22:28;;;;;;;;;;;;;;;25.10;100.00;100578.06;102841;1293;601013;-44
2023/07/05 05:24:55;;;;;;;10.30;6.60;;;;;;;25.11;100.00;100582.95;104856;1266;60684;-48
2023/07/05 05:27:23;;;;;;;8.70;6.70;;;;;;;25.26;100.00;100582.14;104734;1266;59373;-43
2023/07/05 05:29:51;;;;;;;9.00;6.90;;;;;;;25.49;100.00;100578.25;104914;1266;72236;-48
2023/07/05 05:32:19;;;;;;;14.50;7.10;;;;;;;25.61;100.00;100583.84;104867;1267;64057;-42
2023/07/05 05:34:47;;;;;;;20.00;7.00;;;;;;;25.89;100.00;100581.02;104822;1266;71413;-43
2023/07/05 05:37:15;;;;;;;11.90;6.80;;;;;;;26.38;100.00;100570.58;104770;1263;372527;-43
2023/07/05 05:39:43;;;;;;;12.50;6.40;;;;;;;26.78;100.00;100587.05;105071;1263;59242;-45
2023/07/05 05:42:11;;;;;;;13.20;6.70;;;;;;;27.19;100.00;100586.58;105142;1263;71036;-45
2023/07/05 05:44:39;;;;;;;12.00;6.90;;;;;;;27.48;100.00;100609.45;105081;1268;63943;-46
2023/07/05 05:47:08;;;;;;;10.10;6.80;;;;;;;27.56;100.00;100645.06;105056;1264;72471;-47
2023/07/05 05:49:36;;;;;;;16.50;6.70;;;;;;;27.55;100.00;100671.75;105099;1267;59676;-42
2023/07/05 05:52:04;;;;;;;7.20;6.00;;;;;;;27.79;100.00;100671.75;105083;1268;60038;-43
2023/07/05 05:54:33;;;;;;;10.50;6.10;;;;;;;28.01;100.00;100681.90;105131;1263;73048;-45
2023/07/05 05:57:01;;;;;;;10.30;5.80;;;;;;;28.15;100.00;100693.80;105253;1267;64027;-44
2023/07/05 05:59:29;;;;;;;8.70;6.20;;;;;;;28.44;100.00;100694.61;105208;1263;71429;-45
2023/07/05 06:01:57;;;;;;;8.10;6.00;;;;;;;28.73;100.00;100691.44;105219;1262;59620;-43
2023/07/05 06:04:26;;;;;;;14.00;5.90;;;;;;;28.98;100.00;100698.77;105250;1267;59665;-46
2023/07/05 06:06:54;;;;;;;11.40;5.90;;;;;;;29.17;100.00;100705.23;105247;1261;71827;-44
2023/07/05 06:09:25;;;;;;;8.80;5.80;;;;;;;29.37;100.00;100719.38;105275;1262;64050;-46
2023/07/05 06:11:52;;;;;;;15.70;6.30;;;;;;;29.62;100.00;100717.85;105201;1263;72040;-42
2023/07/05 06:14:20;;;;;;;23.00;6.30;;;;;;;29.84;100.00;100700.34;105222;1261;59629;-44
2023/07/05 06:16:48;;;;;;;8.80;5.80;;;;;;;29.94;99.84;100691.91;105197;1263;59573;-46
2023/07/05 06:19:16;;;;;;;17.80;6.40;;;;;;;30.01;92.40;100694.84;105189;1261;71882;-46
2023/07/05 06:21:43;;;;;;;16.00;6.80;;;;;;;30.15;88.98;100697.89;105170;1263;64012;-47
2023/07/05 06:24:11;;;;;;;13.90;6.50;;;;;;;30.22;88.80;100711.98;105176;1262;71495;-43
2023/07/05 06:26:39;;;;;;;19.90;6.50;;;;;;;30.34;84.81;100699.06;105176;1262;59641;-46
2023/07/05 06:29:07;;;;;;;12.40;6.00;;;;;;;30.49;80.29;100693.70;105188;1267;59542;-45
2023/07/05 06:31:34;;;;;;;15.30;6.10;;;;;;;30.61;77.28;100689.84;104986;1261;72054;-43
2023/07/05 06:34:02;;;;;;;22.20;6.20;;;;;;;30.59;71.65;100657.14;105424;1261;65172;-44
2023/07/05 06:36:30;;;;;;;12.90;6.20;;;;;;;30.41;71.77;100676.10;105550;1259;71855;-45
2023/07/05 06:38:58;;;;;;;64.00;8.10;;;;;;;30.40;72.38;100698.98;105565;1257;60015;-46
2023/07/05 06:41:25;;;;;;;21.80;6.30;;;;;;;30.50;70.29;100675.77;105528;1258;59581;-44
2023/07/05 06:43:53;;;;;;;18.30;6.50;;;;;;;30.52;69.05;100676.64;105587;1256;71824;-46
2023/07/05 06:46:21;;;;;;;14.90;5.80;;;;;;;30.55;70.46;100702.12;105554;1257;64573;-43
2023/07/05 06:48:49;;;;;;;16.40;6.30;;;;;;;30.65;70.65;100704.22;105555;1257;72747;-45
2023/07/05 06:51:17;;;;;;;23.90;6.30;;;;;;;30.68;72.81;100729.40;105583;1257;59855;-46
2023/07/05 06:53:45;;;;;;;20.20;6.20;;;;;;;30.62;73.05;100731.41;105604;1259;59704;-46
2023/07/05 06:56:16;;;;;;;17.10;6.40;;;;;;;30.51;70.04;100699.88;105564;1256;71827;-45
2023/07/05 06:58:46;;;;;;;20.30;5.90;;;;;;;30.24;70.60;100723.53;105580;1261;63930;-43
2023/07/05 07:01:14;;;;;;;15.70;5.60;;;;;;;29.93;71.27;100735.56;105570;1261;70812;-43
2023/07/05 07:03:42;;;;;;;17.70;6.30;;;;;;;29.63;82.84;100788.35;105586;1260;60039;-45
2023/07/05 07:06:10;;;;;;;25.90;6.20;;;;;;;29.70;100.00;100818.08;105553;1257;59671;-43
2023/07/05 07:08:39;;;;;;;23.30;6.70;;;;;;;29.93;100.00;100770.58;105601;1262;73470;-44
2023/07/05 07:11:07;;;;;;;20.20;6.30;;;;;;;30.08;89.95;100736.06;105593;1256;64072;-45
2023/07/05 07:13:35;;;;;;;16.10;6.40;;;;;;;30.08;81.35;100721.65;105610;1260;71387;-45
2023/07/05 07:16:06;;;;;;;13.10;6.00;;;;;;;30.12;75.01;100697.67;105545;1258;59726;-44
2023/07/05 07:18:37;;;;;;;8.50;5.40;;;;;;;30.06;73.37;100707.25;105595;1261;60000;-45
2023/07/05 07:21:06;;;;;;;11.00;5.60;;;;;;;29.97;75.60;100736.80;105543;1256;71751;-45
2023/07/05 07:23:33;;;;;;;11.30;6.20;;;;;;;30.15;82.66;100765.66;105596;1255;64267;-45
2023/07/05 07:26:06;;;;;;;8.70;5.80;;;;;;;30.25;76.44;100725.06;105544;1258;70625;-44
2023/07/05 07:28:34;;;;;;;8.30;5.50;;;;;;;30.17;77.92;100747.89;105530;1258;59720;-45
2023/07/05 07:31:12;;;;;;;15.70;5.50;;;;;;;30.23;77.44;100734.89;105562;1261;59909;-45
2023/07/05 07:33:40;;;;;;;12.50;6.20;;;;;;;30.54;78.63;100741.46;105375;1256;73140;-45
2023/07/05 07:36:12;;;;;;;13.30;6.20;;;;;;;30.70;75.35;100717.63;105423;1255;64316;-47
2023/07/05 07:38:41;;;;;;;9.00;6.30;;;;;;;30.62;73.57;100716.66;105614;1257;72683;-47
2023/07/05 07:41:17;;;;;;;9.50;5.80;;;;;;;30.72;78.37;100753.37;105559;1260;59663;-45
2023/07/05 07:43:45;;;;;;;11.60;5.60;;;;;;;31.01;77.07;100737.52;105594;1262;59720;-45
2023/07/05 07:46:14;;;;;;;16.20;6.70;;;;;;;31.24;74.53;100721.32;105586;1255;71734;-45
2023/07/05 07:48:44;;;;;;;11.60;6.20;;;;;;;31.37;71.81;100709.31;105562;1260;63861;-45
2023/07/05 07:51:12;;;;;;;14.60;6.40;;;;;;;31.34;69.86;100698.95;105754;1253;71448;-43
2023/07/05 07:54:00;;;;;;;9.20;5.60;;;;;;;31.28;68.39;100693.70;105749;1253;59705;-43
2023/07/05 07:56:28;;;;;;;11.80;6.40;;;;;;;31.26;66.71;100677.79;105807;1257;59791;-46
2023/07/05 07:58:57;;;;;;;10.70;5.40;;;;;;;31.20;67.45;100699.30;105789;1253;73032;-46
2023/07/05 08:01:30;;;;;;;10.60;5.90;;;;;;;31.22;70.19;100733.12;105803;1254;63994;-45
2023/07/05 08:03:58;;;;;;;9.30;5.70;;;;;;;31.44;67.62;100692.05;105764;1253;71710;-43
2023/07/05 08:06:31;;;;;;;11.10;5.20;;;;;;;31.60;63.85;100634.67;105821;1257;60020;-43
2023/07/05 08:08:58;;;;;;;11.00;5.40;;;;;;;31.85;61.99;100605.00;105813;1257;59544;-45
2023/07/05 08:11:26;;;;;;;8.80;4.80;;;;;;;32.11;60.49;100577.09;105780;1257;71229;-45
2023/07/05 08:13:54;;;;;;;10.40;4.80;;;;;;;32.30;57.79;100518.49;105802;1253;65411;-42
2023/07/05 08:16:22;;;;;;;7.00;5.10;;;;;;;32.35;57.36;100526.06;105775;1254;71468;-45
2023/07/05 08:18:50;;;;;;;10.70;4.60;;;;;;;32.50;56.77;100517.55;105755;1253;59635;-46
2023/07/05 08:21:18;;;;;;;10.60;4.80;;;;;;;32.67;57.93;100566.31;105784;1258;59552;-44
2023/07/05 08:23:45;;;;;;;5.10;4.50;;;;;;;32.91;56.17;100513.00;105778;1254;73033;-44
2023/07/05 08:26:13;;;;;;;4.90;4.50;;;;;;;32.99;56.63;100547.19;105857;1254;64505;-46
2023/07/05 08:28:41;;;;;;;8.50;5.50;;;;;;;33.10;58.04;100598.27;105750;1253;71406;-46
2023/07/05 08:31:08;;;;;;;13.80;6.00;;;;;;;33.27;56.28;100539.18;105803;1253;59613;-46
2023/07/05 08:33:36;;;;;;;6.60;4.70;;;;;;;33.33;55.01;100497.88;105759;1259;59621;-44
2023/07/05 08:36:09;;;;;;;5.00;4.70;;;;;;;33.30;54.88;100502.31;105836;1251;71760;-46
2023/07/05 08:38:49;;;;;;;11.80;4.40;;;;;;;32.92;53.69;100470.85;105821;1253;64227;-44
2023/07/05 08:41:57;;;;;;;6.50;4.30;;;;;;;32.84;54.23;100513.73;105871;1259;71325;-45
2023/07/05 08:44:31;;;;;;;6.20;4.90;;;;;;;33.16;53.22;100459.65;105567;1259;59741;-47
2023/07/05 08:47:08;;;;;;;10.80;4.40;;;;;;;33.36;54.52;100532.13;105812;1259;59645;-47
2023/07/05 08:49:41;;;;;;;9.60;4.50;;;;;;;33.59;52.82;100449.38;105780;1253;73018;-47
2023/07/05 08:52:30;;;;;;;14.20;4.80;;;;;;;33.71;50.47;100297.77;105810;1253;64441;-46
2023/07/05 08:55:00;;;;;;;5.20;3.80;;;;;;;33.63;51.03;100371.98;105712;1253;72432;-42
2023/07/05 08:57:33;;;;;;;10.00;4.00;;;;;;;33.54;47.38;100101.05;105817;1253;60056;-44
2023/07/05 09:00:11;;;;;;;4.50;4.10;;;;;;;33.45;47.97;100177.63;105720;1256;59647;-44
2023/07/05 09:02:39;;;;;;;11.40;4.50;;;;;;;33.70;49.67;100348.45;105810;1253;71455;-45
2023/07/05 09:05:43;;;;;;;8.20;4.20;;;;;;;34.11;50.72;100408.20;105819;1253;63932;-44
2023/07/05 09:08:23;;;;;;;5.90;4.10;;;;;;;34.45;50.03;100343.66;105712;1253;71448;-45
2023/07/05 09:10:56;;;;;;;12.20;4.10;;;;;;;34.26;46.95;100099.90;105790;1257;59643;-45
2023/07/05 09:13:39;;;;;;;5.50;4.20;;;;;;;34.12;48.12;100238.79;105756;1258;59544;-46
2023/07/05 09:16:11;;;;;;;8.00;4.10;;;;;;;33.72;48.63;100303.52;105817;1257;73081;-46
2023/07/05 09:18:57;;;;;;;8.80;4.20;;;;;;;33.65;49.48;100396.22;105835;1254;64126;-46
2023/07/05 09:21:35;;;;;;;7.90;3.70;;;;;;;33.66;48.66;100312.48;105769;1258;72653;-44
2023/07/05 09:24:30;;;;;;;8.00;4.10;;;;;;;33.57;46.79;100146.27;105810;1253;60078;-43
2023/07/05 09:27:06;;;;;;;6.90;4.20;;;;;;;33.73;48.82;100330.63;105829;1253;59995;-43
2023/07/05 09:29:34;;;;;;;;;;;;;;;34.18;49.28;100384.09;105732;1253;71830;-47
2023/07/05 09:32:09;;;;;;;12.60;4.60;;;;;;;34.45;47.75;100222.77;105774;1253;64311;-45
2023/07/05 09:34:38;;;;;;;;;;;;;;;34.33;48.53;100310.83;105738;1256;71430;-47
2023/07/05 09:37:18;;;;;;;13.50;4.10;;;;;;;34.45;46.71;100162.84;105627;1259;60533;-48
2023/07/05 09:39:55;;;;;;;7.20;4.00;;;;;;;34.51;47.27;100205.91;105512;1253;60490;-49
2023/07/05 09:42:35;;;;;;;22.00;4.60;;;;;;;34.81;46.40;100121.60;105764;1258;72893;-50
2023/07/05 09:45:03;;;;;;;6.40;4.00;;;;;;;35.03;46.87;100158.64;105732;1254;63939;-45
2023/07/05 09:47:32;;;;;;;15.30;4.10;;;;;;;35.09;46.79;100167.54;105776;1253;72602;-47
2023/07/05 09:49:59;;;;;;;5.80;4.00;;;;;;;35.20;45.84;100088.84;105691;1260;60623;-46
2023/07/05 09:52:28;;;;;;;5.30;3.80;;;;;;;35.23;45.26;100024.23;105763;1258;60800;-46
2023/07/05 09:55:00;;;;;;;7.60;3.60;;;;;;;35.15;44.44;99916.92;105747;1253;73851;-48
2023/07/05 09:57:28;;;;;;;10.50;4.00;;;;;;;35.25;47.00;100223.35;105829;1258;64000;-46
2023/07/05 09:59:56;;;;;;;7.60;4.00;;;;;;;35.35;44.25;99951.88;105750;1258;71390;-43
2023/07/05 10:02:25;;;;;;;3.80;3.50;;;;;;;35.17;43.60;99900.75;105643;1261;60551;-45
2023/07/05 10:04:58;;;;;;;4.70;3.80;;;;;;;35.14;43.83;99929.98;105780;1254;60449;-46
2023/07/05 10:07:29;;;;;;;8.10;4.00;;;;;;;35.02;43.30;99885.04;105747;1253;73605;-46
2023/07/05 10:09:57;;;;;;;8.40;4.20;;;;;;;34.97;44.37;99989.08;105805;1254;63903;-46
2023/07/05 10:12:27;;;;;;;8.10;3.80;;;;;;;34.76;44.22;99997.91;105814;1254;71401;-43
2023/07/05 10:14:55;;;;;;;6.10;3.90;;;;;;;34.52;45.50;100151.34;105818;1253;60522;-44
2023/07/05 10:17:41;;;;;;;18.10;4.30;;;;;;;34.91;46.29;100240.73;105823;1258;60342;-44
2023/07/05 10:20:32;;;;;;;14.10;4.20;;;;;;;35.23;44.86;100069.40;105821;1253;73813;-47
2023/07/05 10:23:15;;;;;;;16.80;4.00;;;;;;;35.57;46.27;100242.19;105847;1259;63886;-46
2023/07/05 10:25:43;;;;;;;15.40;4.30;;;;;;;35.72;43.75;99952.23;105710;1254;71093;-46
2023/07/05 10:28:14;;;;;;;10.90;3.60;;;;;;;35.77;44.63;100047.44;105668;1260;60620;-46
2023/07/05 10:30:53;;;;;;;8.80;3.70;;;;;;;35.99;42.63;99827.91;105831;1259;60496;-44
2023/07/05 10:33:41;;;;;;;9.70;4.00;;;;;;;36.34;40.64;99606.79;105834;1257;72641;-46
2023/07/05 10:36:09;;;;;;;4.00;3.60;;;;;;;36.53;41.55;99675.90;105757;1254;63960;-48
2023/07/05 10:38:44;;;;;;;8.90;3.20;;;;;;;36.41;40.66;99622.89;105787;1253;71454;-45
2023/07/05 10:41:16;;;;;;;9.20;3.40;;;;;;;36.35;41.29;99687.63;105802;1254;60509;-47
2023/07/05 10:43:47;;;;;;;19.80;4.10;;;;;;;36.54;39.10;99470.38;105719;1258;61074;-45
2023/07/05 10:46:15;;;;;;;23.90;4.70;;;;;;;36.57;39.91;99527.00;105835;1254;72649;-45
2023/07/05 10:48:43;;;;;;;5.90;3.40;;;;;;;36.52;42.24;99820.80;105812;1255;63892;-45
2023/07/05 10:51:15;;;;;;;6.80;3.20;;;;;;;36.57;40.63;99651.80;105620;1258;72679;-47
2023/07/05 10:53:46;;;;;;;24.90;4.60;;;;;;;36.65;40.62;99664.93;105785;1257;60493;-48
2023/07/05 10:56:17;;;;;;;6.10;3.50;;;;;;;36.44;40.86;99673.60;105850;1258;60325;-46
2023/07/05 10:58:46;;;;;;;34.00;4.80;;;;;;;36.35;40.79;99694.09;105757;1253;72593;-47
2023/07/05 11:01:26;;;;;;;7.20;3.50;;;;;;;36.17;40.56;99636.40;105824;1252;64459;-48
2023/07/05 11:04:01;;;;;;;4.60;3.20;;;;;;;36.00;40.38;99670.25;105830;1254;73203;-45
2023/07/05 11:06:28;;;;;;;7.30;3.20;;;;;;;35.70;40.01;99613.77;105841;1258;60534;-46
2023/07/05 11:08:57;;;;;;;7.10;3.30;;;;;;;35.52;39.90;99625.25;105674;1255;60333;-47
2023/07/05 11:11:30;;;;;;;6.10;3.20;;;;;;;35.51;39.94;99625.04;105855;1258;74167;-46
2023/07/05 11:14:00;;;;;;;21.60;4.30;;;;;;;35.47;40.47;99695.66;105806;1252;65325;-47
2023/07/05 11:16:29;;;;;;;13.00;4.20;;;;;;;35.60;39.58;99623.31;105696;1259;71397;-47
2023/07/05 11:19:01;;;;;;;14.70;3.60;;;;;;;35.53;39.91;99613.02;105702;1258;60617;-45
2023/07/05 11:21:40;;;;;;;34.30;5.60;;;;;;;35.80;40.28;99706.13;105796;1254;60339;-47
2023/07/05 11:24:09;;;;;;;6.10;3.30;;;;;;;35.93;40.27;99686.95;105826;1254;73815;-44
2023/07/05 11:26:42;;;;;;;7.30;3.20;;;;;;;35.86;39.08;99551.19;105837;1259;64080;-45
2023/07/05 11:29:32;;;;;;;4.90;3.40;;;;;;;35.85;40.07;99665.04;105794;1258;72014;-47